Kintyre, North Dakota
Current Conditions -  °F | °C
As of 2:55 PM on Friday 31 Oct 2014 (Local Time) from K7L2 Reporting Station
Clear Clear  
Wind Chill: 27°   Ceiling: Unl
Heat Index: 37°   Visibility: 10mi
Dew Point: 14°   Wind: 21mph
Humidity: 38%   Direction: 160°SSE
Pressure: 30.34"   Gusts: 28mph
Location:  46.55°N, 99.95°W
Report Text: K7L2 311955Z AUTO 16018G24KT 10SM CLR 03/M10 A3034 RMK AO2 PWINO PNO
Loading
Personal Weather Stations






























Interactive Weather Map
Tropical Storm Tracking
New forecast layout! Learn more

10-Day Weather Forecast

Advertisements
Track Severe Weather on mobile